CheckWX is a tool to help pilots better visualize weather data.  It is not intended as a substitute for an official pre-flight weather briefing.

16:24:10 UTC

KHJO METAR
Hanford Municipal Airport
Hanford, California, USA
Current

31 mins ago

KHJO 211553Z AUTO 04003KT 5SM HZ CLR 09/05 A3011 RMK AO2 SLP197 T00890050
Observed
Feb-21 @ 15:53 UTC
Wind
  • 040° at 3 KTS
Visibility
5 SM
Flight Rules
MVFR
Conditions
Haze
Cloud Levels
  • Clear skies
Temperature
C / 48°F
Dewpoint
C / 41°F
Humidity
76%
Altimeter
30.11" Hg
Pressure
1019.62 hPa
Previous

2 hours ago

KHJO 211453Z AUTO 34004KT 7SM CLR 08/04 A3009 RMK AO2 SLP190 T00780044 53004
Observed
Feb-21 @ 14:53 UTC
Wind
  • 340° at 4 KTS
Visibility
7 SM
Flight Rules
VFR
Cloud Levels
  • Clear skies
Temperature
C / 46°F
Dewpoint
C / 39°F
Humidity
76%
Altimeter
30.09" Hg
Pressure
1018.92 hPa
Previous

3 hours ago

KHJO 211353Z AUTO 33005KT 7SM CLR 08/04 A3008 RMK AO2 SLP187 T00830044
Observed
Feb-21 @ 13:53 UTC
Wind
  • 330° at 5 KTS
Visibility
7 SM
Flight Rules
VFR
Cloud Levels
  • Clear skies
Temperature
C / 46°F
Dewpoint
C / 39°F
Humidity
76%
Altimeter
30.08" Hg
Pressure
1018.62 hPa